sensor_id;sensor_type;location;lat;lon;timestamp;P1;durP1;ratioP1;P2;durP2;ratioP2
51020;SDS011;38907;45.562;8.856;2023-05-10T00:09:43;14.85;;;11.32;;
51020;SDS011;38907;45.562;8.856;2023-05-10T00:14:47;16.38;;;11.68;;
51020;SDS011;38907;45.562;8.856;2023-05-10T00:24:50;17.60;;;13.15;;
51020;SDS011;38907;45.562;8.856;2023-05-10T00:29:53;17.92;;;13.18;;
51020;SDS011;38907;45.562;8.856;2023-05-10T00:39:57;17.58;;;13.23;;
51020;SDS011;38907;45.562;8.856;2023-05-10T00:45:00;22.95;;;13.13;;
51020;SDS011;38907;45.562;8.856;2023-05-10T00:50:02;16.35;;;12.15;;
51020;SDS011;38907;45.562;8.856;2023-05-10T00:55:06;18.38;;;13.50;;
51020;SDS011;38907;45.562;8.856;2023-05-10T01:00:10;17.77;;;13.18;;
51020;SDS011;38907;45.562;8.856;2023-05-10T01:05:18;18.15;;;13.45;;
51020;SDS011;38907;45.562;8.856;2023-05-10T01:10:20;17.42;;;13.40;;
51020;SDS011;38907;45.562;8.856;2023-05-10T01:15:23;18.15;;;13.20;;
51020;SDS011;38907;45.562;8.856;2023-05-10T01:20:25;17.05;;;13.32;;
51020;SDS011;38907;45.562;8.856;2023-05-10T01:25:44;17.50;;;13.77;;
51020;SDS011;38907;45.562;8.856;2023-05-10T01:31:07;19.15;;;14.77;;
51020;SDS011;38907;45.562;8.856;2023-05-10T01:36:20;19.75;;;13.10;;
51020;SDS011;38907;45.562;8.856;2023-05-10T01:41:28;13.70;;;10.73;;
51020;SDS011;38907;45.562;8.856;2023-05-10T01:46:35;14.93;;;11.98;;
51020;SDS011;38907;45.562;8.856;2023-05-10T01:51:41;15.85;;;11.00;;
51020;SDS011;38907;45.562;8.856;2023-05-10T01:56:49;13.82;;;10.95;;
51020;SDS011;38907;45.562;8.856;2023-05-10T02:01:56;15.40;;;10.48;;
51020;SDS011;38907;45.562;8.856;2023-05-10T02:07:01;15.40;;;10.20;;
51020;SDS011;38907;45.562;8.856;2023-05-10T02:12:04;15.55;;;10.48;;
51020;SDS011;38907;45.562;8.856;2023-05-10T02:17:07;12.65;;;8.70;;
51020;SDS011;38907;45.562;8.856;2023-05-10T02:22:12;10.80;;;8.00;;
51020;SDS011;38907;45.562;8.856;2023-05-10T02:27:14;10.15;;;7.47;;
51020;SDS011;38907;45.562;8.856;2023-05-10T02:32:18;9.23;;;6.50;;
51020;SDS011;38907;45.562;8.856;2023-05-10T02:37:22;10.10;;;6.80;;
51020;SDS011;38907;45.562;8.856;2023-05-10T02:42:26;9.10;;;6.63;;
51020;SDS011;38907;45.562;8.856;2023-05-10T02:47:28;7.80;;;5.78;;
51020;SDS011;38907;45.562;8.856;2023-05-10T02:52:36;8.63;;;6.27;;
51020;SDS011;38907;45.562;8.856;2023-05-10T02:57:42;9.52;;;5.80;;
51020;SDS011;38907;45.562;8.856;2023-05-10T03:02:48;8.75;;;5.90;;
51020;SDS011;38907;45.562;8.856;2023-05-10T03:07:51;10.25;;;6.18;;
51020;SDS011;38907;45.562;8.856;2023-05-10T03:12:56;8.05;;;6.03;;
51020;SDS011;38907;45.562;8.856;2023-05-10T03:18:09;7.55;;;6.38;;
51020;SDS011;38907;45.562;8.856;2023-05-10T03:23:21;9.45;;;6.75;;
51020;SDS011;38907;45.562;8.856;2023-05-10T03:28:28;9.88;;;5.53;;
51020;SDS011;38907;45.562;8.856;2023-05-10T03:33:31;8.23;;;7.00;;
51020;SDS011;38907;45.562;8.856;2023-05-10T03:38:34;9.40;;;6.90;;
51020;SDS011;38907;45.562;8.856;2023-05-10T03:43:36;8.32;;;6.75;;
51020;SDS011;38907;45.562;8.856;2023-05-10T03:48:38;12.00;;;8.32;;
51020;SDS011;38907;45.562;8.856;2023-05-10T03:53:41;9.32;;;7.28;;
51020;SDS011;38907;45.562;8.856;2023-05-10T03:58:43;10.40;;;6.65;;
51020;SDS011;38907;45.562;8.856;2023-05-10T04:03:45;8.43;;;6.47;;
51020;SDS011;38907;45.562;8.856;2023-05-10T04:08:48;8.43;;;6.43;;
51020;SDS011;38907;45.562;8.856;2023-05-10T04:13:50;9.07;;;6.20;;
51020;SDS011;38907;45.562;8.856;2023-05-10T04:18:52;7.28;;;5.57;;
51020;SDS011;38907;45.562;8.856;2023-05-10T04:23:55;8.52;;;5.20;;
51020;SDS011;38907;45.562;8.856;2023-05-10T04:28:57;7.18;;;5.40;;
51020;SDS011;38907;45.562;8.856;2023-05-10T04:33:59;7.43;;;5.25;;
51020;SDS011;38907;45.562;8.856;2023-05-10T04:39:02;7.55;;;4.65;;
51020;SDS011;38907;45.562;8.856;2023-05-10T04:44:04;6.13;;;5.20;;
51020;SDS011;38907;45.562;8.856;2023-05-10T04:49:07;7.70;;;5.05;;
51020;SDS011;38907;45.562;8.856;2023-05-10T04:54:10;5.80;;;4.72;;
51020;SDS011;38907;45.562;8.856;2023-05-10T04:59:12;6.10;;;5.45;;
51020;SDS011;38907;45.562;8.856;2023-05-10T05:04:14;7.32;;;5.00;;
51020;SDS011;38907;45.562;8.856;2023-05-10T05:09:17;7.53;;;5.70;;
51020;SDS011;38907;45.562;8.856;2023-05-10T05:14:19;9.18;;;4.93;;
51020;SDS011;38907;45.562;8.856;2023-05-10T05:19:21;7.00;;;5.32;;
51020;SDS011;38907;45.562;8.856;2023-05-10T05:24:25;7.97;;;5.32;;
51020;SDS011;38907;45.562;8.856;2023-05-10T05:29:26;6.80;;;4.85;;
51020;SDS011;38907;45.562;8.856;2023-05-10T05:34:28;7.60;;;5.03;;
51020;SDS011;38907;45.562;8.856;2023-05-10T05:39:31;6.18;;;4.80;;
51020;SDS011;38907;45.562;8.856;2023-05-10T05:44:33;9.20;;;5.13;;
51020;SDS011;38907;45.562;8.856;2023-05-10T05:49:35;5.90;;;4.75;;
51020;SDS011;38907;45.562;8.856;2023-05-10T05:54:38;7.70;;;5.10;;
51020;SDS011;38907;45.562;8.856;2023-05-10T06:04:43;6.47;;;5.57;;
51020;SDS011;38907;45.562;8.856;2023-05-10T06:09:47;7.20;;;6.00;;
51020;SDS011;38907;45.562;8.856;2023-05-10T06:19:51;7.50;;;5.97;;
51020;SDS011;38907;45.562;8.856;2023-05-10T06:24:54;7.45;;;5.55;;
51020;SDS011;38907;45.562;8.856;2023-05-10T06:29:56;7.40;;;5.80;;
51020;SDS011;38907;45.562;8.856;2023-05-10T06:34:58;7.53;;;6.40;;
51020;SDS011;38907;45.562;8.856;2023-05-10T06:40:01;6.75;;;5.47;;
51020;SDS011;38907;45.562;8.856;2023-05-10T06:45:03;7.85;;;6.10;;
51020;SDS011;38907;45.562;8.856;2023-05-10T06:50:06;8.73;;;5.97;;
51020;SDS011;38907;45.562;8.856;2023-05-10T06:55:10;6.43;;;5.37;;
51020;SDS011;38907;45.562;8.856;2023-05-10T07:00:12;7.93;;;5.82;;
51020;SDS011;38907;45.562;8.856;2023-05-10T07:05:15;9.85;;;6.47;;
51020;SDS011;38907;45.562;8.856;2023-05-10T07:10:19;7.65;;;6.72;;
51020;SDS011;38907;45.562;8.856;2023-05-10T07:15:20;10.85;;;7.53;;
51020;SDS011;38907;45.562;8.856;2023-05-10T07:20:22;7.18;;;6.47;;
51020;SDS011;38907;45.562;8.856;2023-05-10T07:25:26;10.05;;;6.57;;
51020;SDS011;38907;45.562;8.856;2023-05-10T07:35:29;9.00;;;6.85;;
51020;SDS011;38907;45.562;8.856;2023-05-10T07:40:33;7.72;;;6.80;;
51020;SDS011;38907;45.562;8.856;2023-05-10T07:50:36;8.05;;;6.68;;
51020;SDS011;38907;45.562;8.856;2023-05-10T07:55:39;8.27;;;6.20;;
51020;SDS011;38907;45.562;8.856;2023-05-10T08:05:43;8.70;;;6.95;;
51020;SDS011;38907;45.562;8.856;2023-05-10T08:10:46;7.50;;;6.00;;
51020;SDS011;38907;45.562;8.856;2023-05-10T08:20:52;8.52;;;6.30;;
51020;SDS011;38907;45.562;8.856;2023-05-10T08:25:56;8.73;;;6.53;;
51020;SDS011;38907;45.562;8.856;2023-05-10T08:30:58;7.07;;;6.38;;
51020;SDS011;38907;45.562;8.856;2023-05-10T08:36:00;9.43;;;6.63;;
51020;SDS011;38907;45.562;8.856;2023-05-10T08:41:04;6.82;;;6.13;;
51020;SDS011;38907;45.562;8.856;2023-05-10T08:46:06;8.13;;;6.97;;
51020;SDS011;38907;45.562;8.856;2023-05-10T08:51:11;7.18;;;6.35;;
51020;SDS011;38907;45.562;8.856;2023-05-10T08:56:17;6.38;;;5.75;;
51020;SDS011;38907;45.562;8.856;2023-05-10T09:01:20;8.52;;;6.30;;
51020;SDS011;38907;45.562;8.856;2023-05-10T09:06:22;9.00;;;6.80;;
51020;SDS011;38907;45.562;8.856;2023-05-10T09:11:26;8.37;;;6.60;;
51020;SDS011;38907;45.562;8.856;2023-05-10T09:16:30;7.72;;;5.97;;
51020;SDS011;38907;45.562;8.856;2023-05-10T09:21:31;10.23;;;7.18;;
51020;SDS011;38907;45.562;8.856;2023-05-10T09:26:39;8.85;;;7.07;;
51020;SDS011;38907;45.562;8.856;2023-05-10T09:31:49;7.87;;;7.07;;
51020;SDS011;38907;45.562;8.856;2023-05-10T09:36:55;7.35;;;6.07;;
51020;SDS011;38907;45.562;8.856;2023-05-10T09:41:59;7.10;;;6.00;;
51020;SDS011;38907;45.562;8.856;2023-05-10T09:47:03;6.63;;;5.80;;
51020;SDS011;38907;45.562;8.856;2023-05-10T09:52:06;6.57;;;5.20;;
51020;SDS011;38907;45.562;8.856;2023-05-10T09:57:10;6.38;;;5.40;;
51020;SDS011;38907;45.562;8.856;2023-05-10T10:02:21;6.63;;;5.73;;
51020;SDS011;38907;45.562;8.856;2023-05-10T10:07:30;7.63;;;5.97;;
51020;SDS011;38907;45.562;8.856;2023-05-10T10:12:33;6.10;;;5.50;;
51020;SDS011;38907;45.562;8.856;2023-05-10T10:17:36;7.55;;;6.10;;
51020;SDS011;38907;45.562;8.856;2023-05-10T10:22:39;9.50;;;6.63;;
51020;SDS011;38907;45.562;8.856;2023-05-10T10:27:45;11.32;;;7.45;;
51020;SDS011;38907;45.562;8.856;2023-05-10T10:32:59;7.32;;;6.38;;
51020;SDS011;38907;45.562;8.856;2023-05-10T10:38:12;7.18;;;6.22;;
51020;SDS011;38907;45.562;8.856;2023-05-10T10:43:22;7.97;;;6.67;;
51020;SDS011;38907;45.562;8.856;2023-05-10T10:48:25;5.85;;;5.13;;
51020;SDS011;38907;45.562;8.856;2023-05-10T10:53:27;5.38;;;4.88;;
51020;SDS011;38907;45.562;8.856;2023-05-10T10:58:31;6.38;;;5.32;;
51020;SDS011;38907;45.562;8.856;2023-05-10T11:03:33;5.90;;;4.63;;
51020;SDS011;38907;45.562;8.856;2023-05-10T11:08:41;5.28;;;4.78;;
51020;SDS011;38907;45.562;8.856;2023-05-10T11:13:46;6.05;;;4.88;;
51020;SDS011;38907;45.562;8.856;2023-05-10T11:18:52;5.05;;;4.55;;
51020;SDS011;38907;45.562;8.856;2023-05-10T11:23:58;6.03;;;4.97;;
51020;SDS011;38907;45.562;8.856;2023-05-10T11:34:04;8.70;;;4.90;;
51020;SDS011;38907;45.562;8.856;2023-05-10T11:39:06;5.82;;;4.90;;
51020;SDS011;38907;45.562;8.856;2023-05-10T11:49:12;6.15;;;5.55;;
51020;SDS011;38907;45.562;8.856;2023-05-10T11:54:14;7.30;;;5.85;;
51020;SDS011;38907;45.562;8.856;2023-05-10T11:59:18;5.93;;;5.32;;
51020;SDS011;38907;45.562;8.856;2023-05-10T12:04:19;5.43;;;4.63;;
51020;SDS011;38907;45.562;8.856;2023-05-10T12:09:22;5.97;;;5.38;;
51020;SDS011;38907;45.562;8.856;2023-05-10T12:14:25;6.85;;;4.72;;
51020;SDS011;38907;45.562;8.856;2023-05-10T12:19:28;6.47;;;5.32;;
51020;SDS011;38907;45.562;8.856;2023-05-10T12:24:37;10.02;;;4.90;;
51020;SDS011;38907;45.562;8.856;2023-05-10T12:29:42;6.65;;;5.20;;
51020;SDS011;38907;45.562;8.856;2023-05-10T12:34:46;6.45;;;5.25;;
51020;SDS011;38907;45.562;8.856;2023-05-10T12:39:48;7.47;;;5.90;;
51020;SDS011;38907;45.562;8.856;2023-05-10T12:44:55;6.82;;;6.10;;
51020;SDS011;38907;45.562;8.856;2023-05-10T12:49:58;12.48;;;5.93;;
51020;SDS011;38907;45.562;8.856;2023-05-10T12:55:01;6.22;;;5.63;;
51020;SDS011;38907;45.562;8.856;2023-05-10T13:00:06;5.82;;;5.15;;
51020;SDS011;38907;45.562;8.856;2023-05-10T13:05:09;6.55;;;5.80;;
51020;SDS011;38907;45.562;8.856;2023-05-10T13:10:13;7.43;;;6.05;;
51020;SDS011;38907;45.562;8.856;2023-05-10T13:15:16;7.03;;;6.10;;
51020;SDS011;38907;45.562;8.856;2023-05-10T13:20:19;6.68;;;5.97;;
51020;SDS011;38907;45.562;8.856;2023-05-10T13:25:22;6.80;;;6.10;;
51020;SDS011;38907;45.562;8.856;2023-05-10T13:30:25;6.63;;;5.93;;
51020;SDS011;38907;45.562;8.856;2023-05-10T13:35:28;7.18;;;5.70;;
51020;SDS011;38907;45.562;8.856;2023-05-10T13:40:30;7.75;;;6.55;;
51020;SDS011;38907;45.562;8.856;2023-05-10T13:45:34;7.13;;;5.50;;
51020;SDS011;38907;45.562;8.856;2023-05-10T13:50:36;8.70;;;5.20;;
51020;SDS011;38907;45.562;8.856;2023-05-10T13:55:38;6.38;;;5.70;;
51020;SDS011;38907;45.562;8.856;2023-05-10T14:00:44;7.57;;;6.28;;
51020;SDS011;38907;45.562;8.856;2023-05-10T14:05:46;5.90;;;4.38;;
51020;SDS011;38907;45.562;8.856;2023-05-10T14:10:48;5.88;;;5.28;;
51020;SDS011;38907;45.562;8.856;2023-05-10T14:15:54;7.68;;;6.65;;
51020;SDS011;38907;45.562;8.856;2023-05-10T14:20:56;7.20;;;6.30;;
51020;SDS011;38907;45.562;8.856;2023-05-10T14:25:58;6.47;;;5.60;;
51020;SDS011;38907;45.562;8.856;2023-05-10T14:31:01;6.73;;;4.70;;
51020;SDS011;38907;45.562;8.856;2023-05-10T14:36:04;7.15;;;6.43;;
51020;SDS011;38907;45.562;8.856;2023-05-10T14:41:07;8.35;;;6.90;;
51020;SDS011;38907;45.562;8.856;2023-05-10T14:46:15;7.82;;;6.20;;
51020;SDS011;38907;45.562;8.856;2023-05-10T14:51:17;9.32;;;6.85;;
51020;SDS011;38907;45.562;8.856;2023-05-10T14:56:21;6.80;;;6.07;;
51020;SDS011;38907;45.562;8.856;2023-05-10T15:01:25;6.95;;;5.88;;
51020;SDS011;38907;45.562;8.856;2023-05-10T15:06:30;8.05;;;5.90;;
51020;SDS011;38907;45.562;8.856;2023-05-10T15:11:33;5.28;;;4.78;;
51020;SDS011;38907;45.562;8.856;2023-05-10T15:16:37;5.72;;;4.93;;
51020;SDS011;38907;45.562;8.856;2023-05-10T15:21:39;5.82;;;5.22;;
51020;SDS011;38907;45.562;8.856;2023-05-10T15:26:44;6.05;;;5.15;;
51020;SDS011;38907;45.562;8.856;2023-05-10T15:31:48;7.47;;;6.05;;
51020;SDS011;38907;45.562;8.856;2023-05-10T15:36:51;6.68;;;5.97;;
51020;SDS011;38907;45.562;8.856;2023-05-10T15:41:53;8.95;;;6.13;;
51020;SDS011;38907;45.562;8.856;2023-05-10T15:46:56;8.15;;;5.68;;
51020;SDS011;38907;45.562;8.856;2023-05-10T15:51:58;7.50;;;6.32;;
51020;SDS011;38907;45.562;8.856;2023-05-10T15:57:00;7.65;;;6.75;;
51020;SDS011;38907;45.562;8.856;2023-05-10T16:02:03;7.28;;;6.57;;
51020;SDS011;38907;45.562;8.856;2023-05-10T16:07:05;7.32;;;6.57;;
51020;SDS011;38907;45.562;8.856;2023-05-10T16:12:07;5.97;;;5.32;;
51020;SDS011;38907;45.562;8.856;2023-05-10T16:17:10;6.55;;;4.57;;
51020;SDS011;38907;45.562;8.856;2023-05-10T16:22:12;6.47;;;4.47;;
51020;SDS011;38907;45.562;8.856;2023-05-10T16:27:14;3.42;;;3.13;;
51020;SDS011;38907;45.562;8.856;2023-05-10T16:32:19;3.80;;;3.30;;
51020;SDS011;38907;45.562;8.856;2023-05-10T16:37:20;4.57;;;3.72;;
51020;SDS011;38907;45.562;8.856;2023-05-10T16:42:22;3.28;;;2.97;;
51020;SDS011;38907;45.562;8.856;2023-05-10T16:47:26;6.77;;;2.90;;
51020;SDS011;38907;45.562;8.856;2023-05-10T16:52:28;2.65;;;2.45;;
51020;SDS011;38907;45.562;8.856;2023-05-10T17:02:34;3.25;;;2.67;;
51020;SDS011;38907;45.562;8.856;2023-05-10T17:07:36;4.07;;;3.17;;
51020;SDS011;38907;45.562;8.856;2023-05-10T17:12:38;3.05;;;2.65;;
51020;SDS011;38907;45.562;8.856;2023-05-10T17:17:41;3.35;;;2.65;;
51020;SDS011;38907;45.562;8.856;2023-05-10T17:22:43;4.13;;;2.88;;
51020;SDS011;38907;45.562;8.856;2023-05-10T17:27:45;2.58;;;2.38;;
51020;SDS011;38907;45.562;8.856;2023-05-10T17:32:48;3.63;;;3.33;;
51020;SDS011;38907;45.562;8.856;2023-05-10T17:37:50;3.88;;;3.47;;
51020;SDS011;38907;45.562;8.856;2023-05-10T17:42:52;4.20;;;3.28;;
51020;SDS011;38907;45.562;8.856;2023-05-10T17:47:55;5.15;;;3.80;;
51020;SDS011;38907;45.562;8.856;2023-05-10T17:52:57;4.22;;;3.60;;
51020;SDS011;38907;45.562;8.856;2023-05-10T17:57:59;4.25;;;3.42;;
51020;SDS011;38907;45.562;8.856;2023-05-10T18:03:03;9.00;;;3.67;;
51020;SDS011;38907;45.562;8.856;2023-05-10T18:08:05;5.40;;;3.40;;
51020;SDS011;38907;45.562;8.856;2023-05-10T18:13:07;4.85;;;3.38;;
51020;SDS011;38907;45.562;8.856;2023-05-10T18:18:11;4.90;;;4.28;;
51020;SDS011;38907;45.562;8.856;2023-05-10T18:23:12;7.07;;;4.20;;
51020;SDS011;38907;45.562;8.856;2023-05-10T18:28:14;5.22;;;4.40;;
51020;SDS011;38907;45.562;8.856;2023-05-10T18:33:18;6.68;;;4.97;;
51020;SDS011;38907;45.562;8.856;2023-05-10T18:38:19;6.00;;;5.00;;
51020;SDS011;38907;45.562;8.856;2023-05-10T18:43:22;7.18;;;5.60;;
51020;SDS011;38907;45.562;8.856;2023-05-10T18:48:25;7.10;;;5.72;;
51020;SDS011;38907;45.562;8.856;2023-05-10T18:53:27;6.35;;;5.55;;
51020;SDS011;38907;45.562;8.856;2023-05-10T18:58:29;7.00;;;5.68;;
51020;SDS011;38907;45.562;8.856;2023-05-10T19:03:32;5.90;;;4.72;;
51020;SDS011;38907;45.562;8.856;2023-05-10T19:08:35;7.35;;;5.90;;
51020;SDS011;38907;45.562;8.856;2023-05-10T19:13:37;7.03;;;5.68;;
51020;SDS011;38907;45.562;8.856;2023-05-10T19:18:41;11.55;;;6.15;;
51020;SDS011;38907;45.562;8.856;2023-05-10T19:23:43;7.47;;;6.10;;
51020;SDS011;38907;45.562;8.856;2023-05-10T19:28:45;6.65;;;5.65;;
51020;SDS011;38907;45.562;8.856;2023-05-10T19:33:48;8.15;;;6.05;;
51020;SDS011;38907;45.562;8.856;2023-05-10T19:38:50;6.85;;;6.13;;
51020;SDS011;38907;45.562;8.856;2023-05-10T19:43:51;10.90;;;6.47;;
51020;SDS011;38907;45.562;8.856;2023-05-10T19:48:55;7.93;;;6.25;;
51020;SDS011;38907;45.562;8.856;2023-05-10T19:53:57;7.10;;;6.07;;
51020;SDS011;38907;45.562;8.856;2023-05-10T19:58:59;8.40;;;6.10;;
51020;SDS011;38907;45.562;8.856;2023-05-10T20:04:03;6.07;;;5.30;;
51020;SDS011;38907;45.562;8.856;2023-05-10T20:09:05;6.80;;;6.05;;
51020;SDS011;38907;45.562;8.856;2023-05-10T20:14:07;7.88;;;6.03;;
51020;SDS011;38907;45.562;8.856;2023-05-10T20:19:10;8.35;;;6.43;;
51020;SDS011;38907;45.562;8.856;2023-05-10T20:29:14;9.77;;;7.07;;
51020;SDS011;38907;45.562;8.856;2023-05-10T20:34:18;10.20;;;7.18;;
51020;SDS011;38907;45.562;8.856;2023-05-10T20:39:22;9.40;;;7.50;;
51020;SDS011;38907;45.562;8.856;2023-05-10T20:44:24;10.60;;;7.55;;
51020;SDS011;38907;45.562;8.856;2023-05-10T20:49:27;8.52;;;6.88;;
51020;SDS011;38907;45.562;8.856;2023-05-10T20:59:31;9.98;;;7.20;;
51020;SDS011;38907;45.562;8.856;2023-05-10T21:04:34;11.27;;;7.53;;
51020;SDS011;38907;45.562;8.856;2023-05-10T21:14:37;11.45;;;8.93;;
51020;SDS011;38907;45.562;8.856;2023-05-10T21:19:41;11.15;;;9.35;;
51020;SDS011;38907;45.562;8.856;2023-05-10T21:29:44;15.90;;;10.43;;
51020;SDS011;38907;45.562;8.856;2023-05-10T21:34:47;13.30;;;10.00;;
51020;SDS011;38907;45.562;8.856;2023-05-10T21:44:51;14.88;;;10.43;;
51020;SDS011;38907;45.562;8.856;2023-05-10T21:49:55;14.70;;;10.27;;
51020;SDS011;38907;45.562;8.856;2023-05-10T21:59:58;14.73;;;11.20;;
51020;SDS011;38907;45.562;8.856;2023-05-10T22:05:02;16.20;;;10.40;;
51020;SDS011;38907;45.562;8.856;2023-05-10T22:10:04;16.48;;;11.27;;
51020;SDS011;38907;45.562;8.856;2023-05-10T22:15:07;13.88;;;10.32;;
51020;SDS011;38907;45.562;8.856;2023-05-10T22:20:11;14.10;;;10.52;;
51020;SDS011;38907;45.562;8.856;2023-05-10T22:25:13;17.48;;;11.02;;
51020;SDS011;38907;45.562;8.856;2023-05-10T22:30:15;15.93;;;10.67;;
51020;SDS011;38907;45.562;8.856;2023-05-10T22:35:20;15.15;;;10.45;;
51020;SDS011;38907;45.562;8.856;2023-05-10T22:40:22;19.55;;;11.43;;
51020;SDS011;38907;45.562;8.856;2023-05-10T22:45:24;17.65;;;12.70;;
51020;SDS011;38907;45.562;8.856;2023-05-10T22:50:27;15.60;;;12.30;;
51020;SDS011;38907;45.562;8.856;2023-05-10T22:55:30;17.83;;;12.35;;
51020;SDS011;38907;45.562;8.856;2023-05-10T23:00:32;14.93;;;11.68;;
51020;SDS011;38907;45.562;8.856;2023-05-10T23:05:35;17.27;;;11.95;;
51020;SDS011;38907;45.562;8.856;2023-05-10T23:15:39;17.10;;;10.48;;
51020;SDS011;38907;45.562;8.856;2023-05-10T23:20:43;13.57;;;10.10;;
51020;SDS011;38907;45.562;8.856;2023-05-10T23:30:48;14.85;;;10.80;;
51020;SDS011;38907;45.562;8.856;2023-05-10T23:35:56;14.32;;;10.48;;
51020;SDS011;38907;45.562;8.856;2023-05-10T23:45:59;18.40;;;11.50;;
51020;SDS011;38907;45.562;8.856;2023-05-10T23:51:03;15.90;;;11.77;;
51020;SDS011;38907;45.562;8.856;2023-05-10T23:56:05;18.88;;;11.65;;
